Time;durP1;ratioP1;P1;durP2;ratioP2;P2;SDS_P1;SDS_P2;PMS_P1;PMS_P2;Temp;Humidity;BMP_temperature;BMP_pressure;BME280_temperature;BME280_humidity;BME280_pressure;Samples;Min_cycle;Max_cycle;Signal;HPM_P1;HPM_P2
2022/01/15 00:01:56;;;;;;;2.65;1.63;;;;;;;;;;5072594;28;20019;-38
2022/01/15 00:04:21;;;;;;;3.63;1.95;;;;;;;;;;5072717;28;20513;-38
2022/01/15 00:06:47;;;;;;;3.67;1.77;;;;;;;;;;5072368;28;20102;-38
2022/01/15 00:09:12;;;;;;;4.60;2.03;;;;;;;;;;5072485;28;20154;-38
2022/01/15 00:11:38;;;;;;;7.05;2.20;;;;;;;;;;5072724;28;20016;-38
2022/01/15 00:14:15;;;;;;;3.25;2.55;;;;;;;;;;5072173;28;20466;-38
2022/01/15 00:16:56;;;;;;;3.90;1.88;;;;;;;;;;5088089;28;20068;-38
2022/01/15 00:19:32;;;;;;;3.85;2.40;;;;;;;;;;5072543;28;20032;-38
2022/01/15 00:21:57;;;;;;;3.47;1.63;;;;;;;;;;5072171;28;20482;-38
2022/01/15 00:24:24;;;;;;;3.67;2.05;;;;;;;;;;5072181;28;20029;-38
2022/01/15 00:26:49;;;;;;;3.88;1.73;;;;;;;;;;5072110;28;20033;-38
2022/01/15 00:29:15;;;;;;;2.47;2.28;;;;;;;;;;5072022;28;20035;-38
2022/01/15 00:31:40;;;;;;;3.42;1.45;;;;;;;;;;5072181;28;20079;-38
2022/01/15 00:34:06;;;;;;;4.38;1.52;;;;;;;;;;5071778;28;20085;-38
2022/01/15 00:36:31;;;;;;;2.08;1.73;;;;;;;;;;5072104;28;20036;-38
2022/01/15 00:38:57;;;;;;;2.15;1.40;;;;;;;;;;5087838;28;20025;-38
2022/01/15 00:41:23;;;;;;;2.33;2.00;;;;;;;;;;5071639;28;20049;-38
2022/01/15 00:43:48;;;;;;;5.20;1.85;;;;;;;;;;5071791;28;20494;-38
2022/01/15 00:46:14;;;;;;;1.58;1.42;;;;;;;;;;5071514;28;20028;-38
2022/01/15 00:48:39;;;;;;;3.88;2.03;;;;;;;;;;5071913;28;20027;-38
2022/01/15 00:51:04;;;;;;;2.95;1.77;;;;;;;;;;5071982;28;20514;-38
2022/01/15 00:53:30;;;;;;;2.35;1.60;;;;;;;;;;5071544;28;20047;-38
2022/01/15 00:55:55;;;;;;;5.18;2.33;;;;;;;;;;5071861;28;20036;-38
2022/01/15 00:58:21;;;;;;;3.55;2.20;;;;;;;;;;5071645;28;20467;-38
2022/01/15 01:00:46;;;;;;;3.08;1.70;;;;;;;;;;5071539;28;20043;-38
2022/01/15 01:03:12;;;;;;;3.17;1.88;;;;;;;;;;5071538;28;20021;-38
2022/01/15 01:05:37;;;;;;;4.07;2.25;;;;;;;;;;5071810;28;20035;-38
2022/01/15 01:08:03;;;;;;;4.82;1.95;;;;;;;;;;5071614;28;20374;-38
2022/01/15 01:23:43;;;;;;;9.30;2.25;;;;;;;;;;5071316;28;20024;-39
2022/01/15 01:26:29;;;;;;;4.78;1.70;;;;;;;;;;5071248;28;20024;-38
2022/01/15 01:29:07;;;;;;;2.95;2.22;;;;;;;;;;5071560;28;20383;-38
2022/01/15 01:31:53;;;;;;;4.72;1.70;;;;;;;;;;5071542;28;20040;-38
2022/01/15 01:34:19;;;;;;;3.67;2.40;;;;;;;;;;5071199;28;20036;-38
2022/01/15 01:36:58;;;;;;;2.72;1.52;;;;;;;;;;5071510;28;20016;-38
2022/01/15 01:39:32;;;;;;;2.45;1.98;;;;;;;;;;5071398;28;20426;-38
2022/01/15 01:44:58;;;;;;;5.43;1.98;;;;;;;;;;5071115;28;20029;-38
2022/01/15 01:47:33;;;;;;;4.68;2.97;;;;;;;;;;5071290;28;20082;-38
2022/01/15 01:49:58;;;;;;;3.20;2.35;;;;;;;;;;5071310;28;20073;-38
2022/01/15 01:52:23;;;;;;;5.80;2.53;;;;;;;;;;5071296;28;20455;-38
2022/01/15 01:54:49;;;;;;;5.13;2.33;;;;;;;;;;5070909;28;20044;-38
2022/01/15 01:57:14;;;;;;;1.90;1.60;;;;;;;;;;5071438;28;20078;-38
2022/01/15 01:59:40;;;;;;;3.38;1.58;;;;;;;;;;5074882;28;20382;-38
2022/01/15 02:02:05;;;;;;;3.75;2.10;;;;;;;;;;5074998;28;20032;-38
2022/01/15 02:04:31;;;;;;;3.97;1.75;;;;;;;;;;5075253;28;20033;-38
2022/01/15 02:06:57;;;;;;;5.35;1.85;;;;;;;;;;5074662;28;20792;-38
2022/01/15 02:09:23;;;;;;;3.58;1.75;;;;;;;;;;5074808;28;20044;-38
2022/01/15 02:11:49;;;;;;;1.73;1.30;;;;;;;;;;5074901;28;20025;-38
2022/01/15 02:14:43;;;;;;;3.17;1.60;;;;;;;;;;5074673;28;20399;-38
2022/01/15 02:17:12;;;;;;;2.83;2.00;;;;;;;;;;5065695;28;20048;-38
2022/01/15 02:19:46;;;;;;;7.13;1.88;;;;;;;;;;5074559;28;20479;-38
2022/01/15 02:24:55;;;;;;;5.35;1.77;;;;;;;;;;5074474;28;20538;-38
2022/01/15 02:27:20;;;;;;;4.40;1.45;;;;;;;;;;5074287;28;20104;-38
2022/01/15 02:29:45;;;;;;;3.47;1.98;;;;;;;;;;5074497;28;20115;-38
2022/01/15 02:32:11;;;;;;;4.53;1.85;;;;;;;;;;5074297;28;20016;-38
2022/01/15 02:34:36;;;;;;;2.15;0.88;;;;;;;;;;5074222;28;20564;-41
2022/01/15 02:37:02;;;;;;;1.50;1.35;;;;;;;;;;5074255;28;20104;-38
2022/01/15 02:39:27;;;;;;;3.85;1.73;;;;;;;;;;5074171;28;20036;-38
2022/01/15 02:41:53;;;;;;;6.45;1.77;;;;;;;;;;5073873;28;20052;-38
2022/01/15 02:44:19;;;;;;;2.05;1.63;;;;;;;;;;5074118;28;20036;-38
2022/01/15 02:49:15;;;;;;;2.67;2.00;;;;;;;;;;5074242;28;20078;-38
2022/01/15 02:51:40;;;;;;;1.95;1.40;;;;;;;;;;5074278;28;20020;-38
2022/01/15 02:54:06;;;;;;;5.18;2.13;;;;;;;;;;5073888;28;20048;-38
2022/01/15 02:56:31;;;;;;;1.88;1.50;;;;;;;;;;5073827;28;20376;-38
2022/01/15 02:58:56;;;;;;;8.80;1.60;;;;;;;;;;5073872;28;20033;-38
2022/01/15 03:01:22;;;;;;;2.78;1.88;;;;;;;;;;5073976;28;20017;-38
2022/01/15 03:03:48;;;;;;;1.38;1.23;;;;;;;;;;5073679;28;20067;-38
2022/01/15 03:06:14;;;;;;;2.58;1.85;;;;;;;;;;5073834;28;20439;-38
2022/01/15 03:08:41;;;;;;;6.30;2.63;;;;;;;;;;5073267;28;20067;-38
2022/01/15 03:11:07;;;;;;;4.07;1.40;;;;;;;;;;5073793;28;20047;-38
2022/01/15 03:13:33;;;;;;;2.28;1.42;;;;;;;;;;5073937;28;20076;-38
2022/01/15 03:15:59;;;;;;;3.60;1.85;;;;;;;;;;5073766;28;20028;-38
2022/01/15 03:18:24;;;;;;;3.28;1.67;;;;;;;;;;5073413;28;20364;-37
2022/01/15 03:20:49;;;;;;;5.25;1.63;;;;;;;;;;5073546;28;20035;-38
2022/01/15 03:23:15;;;;;;;3.83;2.40;;;;;;;;;;5073427;28;20070;-38
2022/01/15 03:25:40;;;;;;;3.03;1.48;;;;;;;;;;5073373;28;20479;-41
2022/01/15 03:28:06;;;;;;;4.28;1.98;;;;;;;;;;5073261;28;20089;-44
2022/01/15 03:30:31;;;;;;;3.90;1.45;;;;;;;;;;5073588;28;20641;-38
2022/01/15 03:32:57;;;;;;;3.38;1.35;;;;;;;;;;5073402;28;20106;-38
2022/01/15 03:35:22;;;;;;;2.55;1.20;;;;;;;;;;5073513;28;20070;-39
2022/01/15 03:37:48;;;;;;;1.45;1.35;;;;;;;;;;5073330;28;20028;-37
2022/01/15 03:40:17;;;;;;;3.05;1.35;;;;;;;;;;5073186;28;20070;-38
2022/01/15 03:42:44;;;;;;;2.38;1.33;;;;;;;;;;5073423;28;20093;-38
2022/01/15 03:45:10;;;;;;;1.58;1.33;;;;;;;;;;5073013;28;20036;-38
2022/01/15 03:47:35;;;;;;;2.28;1.63;;;;;;;;;;5073184;28;20173;-38
2022/01/15 03:50:01;;;;;;;4.30;1.23;;;;;;;;;;5072838;28;20099;-38
2022/01/15 03:52:27;;;;;;;1.95;1.50;;;;;;;;;;5072828;28;20028;-38
2022/01/15 03:54:52;;;;;;;2.22;1.30;;;;;;;;;;5072680;28;20024;-38
2022/01/15 03:57:17;;;;;;;1.83;1.33;;;;;;;;;;5072775;28;20577;-38
2022/01/15 03:59:43;;;;;;;1.10;1.00;;;;;;;;;;5072695;28;20024;-38
2022/01/15 04:02:09;;;;;;;3.70;1.35;;;;;;;;;;5072583;28;20490;-38
2022/01/15 04:04:34;;;;;;;2.70;1.67;;;;;;;;;;5072668;28;20076;-38
2022/01/15 04:07:00;;;;;;;3.50;1.50;;;;;;;;;;5072325;28;20052;-38
2022/01/15 04:09:25;;;;;;;3.50;1.45;;;;;;;;;;5072612;28;20021;-38
2022/01/15 04:11:51;;;;;;;3.13;1.27;;;;;;;;;;5072385;28;20025;-38
2022/01/15 04:14:16;;;;;;;2.80;1.52;;;;;;;;;;5072307;28;20574;-38
2022/01/15 04:16:42;;;;;;;5.35;1.50;;;;;;;;;;5072471;28;20048;-38
2022/01/15 04:19:08;;;;;;;4.00;1.45;;;;;;;;;;5072435;28;20530;-38
2022/01/15 04:21:34;;;;;;;1.92;1.17;;;;;;;;;;5087112;28;20395;-38
2022/01/15 04:24:00;;;;;;;1.42;1.33;;;;;;;;;;5072350;28;20027;-38
2022/01/15 04:26:27;;;;;;;3.13;1.65;;;;;;;;;;5072246;28;20020;-37
2022/01/15 04:28:53;;;;;;;3.25;1.45;;;;;;;;;;5071956;28;20583;-38
2022/01/15 04:31:19;;;;;;;2.45;1.08;;;;;;;;;;5072351;28;20074;-38
2022/01/15 04:33:44;;;;;;;3.17;1.60;;;;;;;;;;5072232;28;20028;-38
2022/01/15 04:36:10;;;;;;;1.63;1.35;;;;;;;;;;5071844;28;20035;-38
2022/01/15 04:38:38;;;;;;;2.20;1.13;;;;;;;;;;5071914;28;20062;-38
2022/01/15 04:41:07;;;;;;;5.88;1.00;;;;;;;;;;5071731;28;20041;-38
2022/01/15 04:43:33;;;;;;;3.28;0.70;;;;;;;;;;5071855;28;20036;-38
2022/01/15 04:45:58;;;;;;;1.63;1.52;;;;;;;;;;5072104;28;20107;-38
2022/01/15 04:48:24;;;;;;;2.05;1.10;;;;;;;;;;5071753;28;20099;-38
2022/01/15 04:50:49;;;;;;;3.05;1.40;;;;;;;;;;5071958;28;20036;-38
2022/01/15 04:53:15;;;;;;;0.70;0.60;;;;;;;;;;5072015;28;20035;-38
2022/01/15 04:55:40;;;;;;;1.23;0.90;;;;;;;;;;5071686;28;20036;-37
2022/01/15 04:58:06;;;;;;;1.20;1.00;;;;;;;;;;5071512;28;20028;-38
2022/01/15 05:00:33;;;;;;;2.70;1.20;;;;;;;;;;5071922;28;20059;-38
2022/01/15 05:02:58;;;;;;;2.72;1.20;;;;;;;;;;5071807;28;20025;-38
2022/01/15 05:05:24;;;;;;;1.52;1.33;;;;;;;;;;5071563;28;20033;-38
2022/01/15 05:07:52;;;;;;;3.63;1.00;;;;;;;;;;5071390;28;20143;-38
2022/01/15 05:10:19;;;;;;;1.85;1.25;;;;;;;;;;5071484;28;20033;-38
2022/01/15 05:12:47;;;;;;;2.58;0.90;;;;;;;;;;5071471;28;20090;-38
2022/01/15 05:15:13;;;;;;;2.92;1.70;;;;;;;;;;5071279;28;20080;-38
2022/01/15 05:17:39;;;;;;;1.83;1.13;;;;;;;;;;5071597;28;20023;-38
2022/01/15 05:20:05;;;;;;;1.75;1.20;;;;;;;;;;5071354;28;20711;-38
2022/01/15 05:22:32;;;;;;;3.20;1.20;;;;;;;;;;5071342;28;20025;-38
2022/01/15 05:24:58;;;;;;;2.10;0.88;;;;;;;;;;5071485;28;20038;-38
2022/01/15 05:27:23;;;;;;;3.17;1.58;;;;;;;;;;5071224;28;20465;-38
2022/01/15 05:29:49;;;;;;;3.70;1.20;;;;;;;;;;5070029;28;20039;-38
2022/01/15 05:32:14;;;;;;;5.53;1.65;;;;;;;;;;5071061;28;20082;-38
2022/01/15 05:34:39;;;;;;;0.90;0.73;;;;;;;;;;5071168;28;20036;-38
2022/01/15 05:37:05;;;;;;;0.65;0.65;;;;;;;;;;5071447;28;20028;-38
2022/01/15 05:39:31;;;;;;;1.73;0.90;;;;;;;;;;5071362;28;20033;-38
2022/01/15 05:41:57;;;;;;;1.83;0.93;;;;;;;;;;5071069;28;20079;-38
2022/01/15 05:44:22;;;;;;;1.52;1.02;;;;;;;;;;5071154;28;20045;-38
2022/01/15 05:46:48;;;;;;;2.15;0.70;;;;;;;;;;5071018;28;20031;-37
2022/01/15 05:49:13;;;;;;;1.48;0.98;;;;;;;;;;5071141;28;20103;-38
2022/01/15 05:51:39;;;;;;;2.38;1.45;;;;;;;;;;5071095;28;20051;-38
2022/01/15 05:54:10;;;;;;;3.63;1.70;;;;;;;;;;5070914;28;20043;-38
2022/01/15 05:56:35;;;;;;;1.83;1.33;;;;;;;;;;5069713;28;20458;-38
2022/01/15 05:59:01;;;;;;;1.15;1.05;;;;;;;;;;5070858;28;20115;-38
2022/01/15 06:01:26;;;;;;;1.15;1.00;;;;;;;;;;5070941;28;20017;-38
2022/01/15 06:03:52;;;;;;;1.35;1.25;;;;;;;;;;5070843;28;20028;-38
2022/01/15 06:06:17;;;;;;;2.47;1.40;;;;;;;;;;5070935;28;20124;-39
2022/01/15 06:08:43;;;;;;;1.33;1.23;;;;;;;;;;5069541;28;20031;-38
2022/01/15 06:11:10;;;;;;;2.15;0.95;;;;;;;;;;5071078;28;20021;-38
2022/01/15 06:13:35;;;;;;;2.38;1.25;;;;;;;;;;5071078;28;20040;-38
2022/01/15 06:16:01;;;;;;;2.17;1.73;;;;;;;;;;5069404;28;20383;-38
2022/01/15 06:18:26;;;;;;;1.98;1.13;;;;;;;;;;5070802;28;20028;-39
2022/01/15 06:20:51;;;;;;;1.55;1.20;;;;;;;;;;5071066;28;20515;-38
2022/01/15 06:23:17;;;;;;;6.75;2.05;;;;;;;;;;5070694;28;20120;-38
2022/01/15 06:25:42;;;;;;;2.00;1.52;;;;;;;;;;5070846;28;20028;-39
2022/01/15 06:28:08;;;;;;;4.82;1.73;;;;;;;;;;5070688;28;20044;-38
2022/01/15 06:30:33;;;;;;;1.38;1.13;;;;;;;;;;5070676;28;20085;-38
2022/01/15 06:32:59;;;;;;;3.15;1.45;;;;;;;;;;5070649;28;20082;-38
2022/01/15 06:35:24;;;;;;;3.45;1.90;;;;;;;;;;5070639;28;20406;-38
2022/01/15 06:37:50;;;;;;;1.35;1.23;;;;;;;;;;5070606;28;20029;-38
2022/01/15 06:40:16;;;;;;;2.30;1.48;;;;;;;;;;5070562;28;20055;-39
2022/01/15 06:42:42;;;;;;;7.88;1.48;;;;;;;;;;5070694;28;20021;-38
2022/01/15 06:45:07;;;;;;;3.42;1.77;;;;;;;;;;5073644;28;20112;-38
2022/01/15 06:47:33;;;;;;;2.38;1.75;;;;;;;;;;5074090;28;20029;-38
2022/01/15 06:50:04;;;;;;;4.72;1.80;;;;;;;;;;5073985;28;20031;-39
2022/01/15 06:52:30;;;;;;;4.15;1.58;;;;;;;;;;5074035;28;20044;-38
2022/01/15 06:54:56;;;;;;;1.77;1.02;;;;;;;;;;5074152;28;20112;-38
2022/01/15 06:57:21;;;;;;;5.65;3.03;;;;;;;;;;5073878;28;20552;-38
2022/01/15 06:59:46;;;;;;;3.75;1.80;;;;;;;;;;5073927;28;20021;-38
2022/01/15 07:02:12;;;;;;;5.57;2.40;;;;;;;;;;5073781;28;20032;-38
2022/01/15 07:04:39;;;;;;;4.20;2.58;;;;;;;;;;5073810;28;20023;-37
2022/01/15 07:07:04;;;;;;;3.75;2.15;;;;;;;;;;5073712;28;20068;-37
2022/01/15 07:09:30;;;;;;;1.85;1.33;;;;;;;;;;5073766;28;20091;-38
2022/01/15 07:11:56;;;;;;;4.53;2.00;;;;;;;;;;5073593;28;20024;-38
2022/01/15 07:14:21;;;;;;;3.25;1.80;;;;;;;;;;5089466;28;20051;-38
2022/01/15 07:16:47;;;;;;;5.25;2.63;;;;;;;;;;5073607;28;20471;-38
2022/01/15 07:19:13;;;;;;;3.25;1.88;;;;;;;;;;5073393;28;20024;-38
2022/01/15 07:21:39;;;;;;;4.65;1.77;;;;;;;;;;5073779;28;20356;-40
2022/01/15 07:24:04;;;;;;;4.57;2.17;;;;;;;;;;5072114;28;20116;-38
2022/01/15 07:26:30;;;;;;;8.23;2.60;;;;;;;;;;5073586;28;20104;-38
2022/01/15 07:28:57;;;;;;;2.75;2.22;;;;;;;;;;5073611;28;20483;-37
2022/01/15 07:31:23;;;;;;;3.72;2.05;;;;;;;;;;5073314;28;20032;-38
2022/01/15 07:33:48;;;;;;;4.85;2.47;;;;;;;;;;5073163;28;20040;-37
2022/01/15 07:36:14;;;;;;;3.35;2.10;;;;;;;;;;5089071;28;20032;-37
2022/01/15 07:38:40;;;;;;;6.35;3.47;;;;;;;;;;5071880;28;20525;-38
2022/01/15 07:41:11;;;;;;;7.00;2.20;;;;;;;;;;5072953;28;20052;-38
2022/01/15 07:43:36;;;;;;;3.88;2.78;;;;;;;;;;5073077;28;20032;-38
2022/01/15 07:46:02;;;;;;;5.20;3.50;;;;;;;;;;5073318;28;20028;-38
2022/01/15 07:48:27;;;;;;;7.18;2.47;;;;;;;;;;5071504;28;20044;-37
2022/01/15 07:50:53;;;;;;;6.65;3.08;;;;;;;;;;5072900;28;20060;-38
2022/01/15 07:53:19;;;;;;;6.22;3.03;;;;;;;;;;5072853;28;20037;-38
2022/01/15 07:55:44;;;;;;;5.90;2.88;;;;;;;;;;5071977;28;20036;-37
2022/01/15 07:58:10;;;;;;;4.40;3.05;;;;;;;;;;5072623;28;20036;-38
2022/01/15 08:00:35;;;;;;;6.38;3.03;;;;;;;;;;5072668;28;20033;-37
2022/01/15 08:03:01;;;;;;;6.50;3.00;;;;;;;;;;5072573;28;20021;-38
2022/01/15 08:05:26;;;;;;;7.22;2.90;;;;;;;;;;5071484;28;20107;-37
2022/01/15 08:07:52;;;;;;;3.65;3.30;;;;;;;;;;5072451;28;20037;-38
2022/01/15 08:10:18;;;;;;;6.80;2.65;;;;;;;;;;5072733;28;20431;-38
2022/01/15 08:12:48;;;;;;;5.03;2.15;;;;;;;;;;5072533;28;20514;-38
2022/01/15 08:15:15;;;;;;;11.20;3.75;;;;;;;;;;5072332;28;20059;-38
2022/01/15 08:17:40;;;;;;;3.00;2.47;;;;;;;;;;5072298;28;20040;-38
2022/01/15 08:20:06;;;;;;;7.97;3.67;;;;;;;;;;5072222;28;20032;-38
2022/01/15 08:22:32;;;;;;;6.32;2.55;;;;;;;;;;5072234;28;20036;-38
2022/01/15 08:24:57;;;;;;;11.70;4.43;;;;;;;;;;5072143;28;20085;-38
2022/01/15 08:27:23;;;;;;;8.77;3.35;;;;;;;;;;5072409;28;20032;-37
2022/01/15 08:29:49;;;;;;;2.42;1.70;;;;;;;;;;5072168;28;20028;-38
2022/01/15 08:32:14;;;;;;;9.85;3.47;;;;;;;;;;5072252;28;20025;-39
2022/01/15 08:34:42;;;;;;;10.93;3.92;;;;;;;;;;5072044;28;20059;-38
2022/01/15 08:37:08;;;;;;;10.30;2.92;;;;;;;;;;5071881;28;20028;-38
2022/01/15 08:39:35;;;;;;;5.00;3.00;;;;;;;;;;5053989;28;20044;-38
2022/01/15 08:42:02;;;;;;;7.88;3.05;;;;;;;;;;5071783;28;20048;-38
2022/01/15 08:44:27;;;;;;;4.78;2.03;;;;;;;;;;5071767;28;20028;-38
2022/01/15 08:46:52;;;;;;;8.05;3.05;;;;;;;;;;5072074;28;20032;-37
2022/01/15 08:49:19;;;;;;;5.00;3.78;;;;;;;;;;5072133;28;20024;-37
2022/01/15 08:51:44;;;;;;;5.47;3.13;;;;;;;;;;5071686;28;20090;-38
2022/01/15 08:54:10;;;;;;;7.10;4.35;;;;;;;;;;5071866;28;20037;-38
2022/01/15 08:56:35;;;;;;;10.13;3.08;;;;;;;;;;5071725;28;20036;-38
2022/01/15 08:59:02;;;;;;;5.25;3.25;;;;;;;;;;5071503;28;20108;-37
2022/01/15 09:01:28;;;;;;;6.53;3.70;;;;;;;;;;5071689;28;20039;-38
2022/01/15 09:03:55;;;;;;;2.03;1.60;;;;;;;;;;5071568;28;20016;-38
2022/01/15 09:06:21;;;;;;;7.30;4.03;;;;;;;;;;5071139;28;20039;-37
2022/01/15 09:08:47;;;;;;;10.55;3.85;;;;;;;;;;5071510;28;20028;-37
2022/01/15 09:11:13;;;;;;;6.78;3.25;;;;;;;;;;5071404;28;20764;-38
2022/01/15 09:13:40;;;;;;;8.00;3.97;;;;;;;;;;5071379;28;20048;-38
2022/01/15 09:16:06;;;;;;;11.18;4.68;;;;;;;;;;5071390;28;20074;-38
2022/01/15 09:18:32;;;;;;;8.18;2.92;;;;;;;;;;5071378;28;20008;-38
2022/01/15 09:20:58;;;;;;;7.90;3.95;;;;;;;;;;5071176;28;20033;-38
2022/01/15 09:23:23;;;;;;;6.75;3.67;;;;;;;;;;5071419;28;20154;-37
2022/01/15 09:25:50;;;;;;;9.52;3.33;;;;;;;;;;5070020;28;20220;-37
2022/01/15 09:30:59;;;;;;;9.30;4.55;;;;;;;;;;5071547;28;20394;-38
2022/01/15 09:33:25;;;;;;;7.93;2.13;;;;;;;;;;5071387;28;20016;-37
2022/01/15 09:35:51;;;;;;;5.25;2.85;;;;;;;;;;5071295;28;20041;-37
2022/01/15 09:38:17;;;;;;;8.70;4.25;;;;;;;;;;5071043;28;20034;-38
2022/01/15 09:40:44;;;;;;;0.95;0.68;;;;;;;;;;5071055;28;20076;-38
2022/01/15 09:43:10;;;;;;;9.95;4.07;;;;;;;;;;5071034;28;20037;-37
2022/01/15 09:45:36;;;;;;;4.75;2.40;;;;;;;;;;5071195;28;20040;-38
2022/01/15 09:48:02;;;;;;;7.40;3.90;;;;;;;;;;5071268;28;20028;-38
2022/01/15 09:50:28;;;;;;;5.13;3.20;;;;;;;;;;5071124;28;20037;-37
2022/01/15 09:52:55;;;;;;;3.10;2.38;;;;;;;;;;5071036;28;20025;-38
2022/01/15 09:55:21;;;;;;;7.35;4.30;;;;;;;;;;5071218;28;20044;-37
2022/01/15 09:57:48;;;;;;;6.78;3.15;;;;;;;;;;5070936;28;20040;-37
2022/01/15 10:00:15;;;;;;;4.20;2.40;;;;;;;;;;5071037;28;20021;-38
2022/01/15 10:02:41;;;;;;;9.82;4.10;;;;;;;;;;5070713;28;20028;-37
2022/01/15 10:05:08;;;;;;;4.97;3.38;;;;;;;;;;5070849;28;20471;-37
2022/01/15 10:07:34;;;;;;;6.38;3.65;;;;;;;;;;5070945;28;20027;-38
2022/01/15 10:10:16;;;;;;;10.70;5.72;;;;;;;;;;5070703;28;20029;-38
2022/01/15 10:12:43;;;;;;;6.90;3.72;;;;;;;;;;5071185;28;20028;-42
2022/01/15 10:15:10;;;;;;;4.57;3.20;;;;;;;;;;5070579;28;20037;-38
2022/01/15 10:17:36;;;;;;;7.15;3.22;;;;;;;;;;5071049;28;20025;-38
2022/01/15 10:20:23;;;;;;;3.03;2.08;;;;;;;;;;5073643;28;20024;-38
2022/01/15 10:22:50;;;;;;;13.57;4.10;;;;;;;;;;5074985;28;20431;-38
2022/01/15 10:25:21;;;;;;;6.20;3.95;;;;;;;;;;5074298;28;20027;-38
2022/01/15 10:27:47;;;;;;;8.73;4.30;;;;;;;;;;5074795;28;20049;-37
2022/01/15 10:30:17;;;;;;;4.53;2.17;;;;;;;;;;5074665;28;20017;-38
2022/01/15 10:33:01;;;;;;;10.27;4.10;;;;;;;;;;5090011;28;20398;-38
2022/01/15 10:35:37;;;;;;;11.27;3.45;;;;;;;;;;5074159;28;20495;-38
2022/01/15 10:38:20;;;;;;;5.38;3.78;;;;;;;;;;5074221;28;20078;-38
2022/01/15 10:40:55;;;;;;;7.72;3.92;;;;;;;;;;5074167;28;20044;-37
2022/01/15 10:43:29;;;;;;;3.42;2.80;;;;;;;;;;5074182;28;20033;-38
2022/01/15 10:45:57;;;;;;;9.88;4.53;;;;;;;;;;5074141;28;20661;-38
2022/01/15 10:48:25;;;;;;;7.80;2.90;;;;;;;;;;5074229;28;20049;-38
2022/01/15 10:51:17;;;;;;;10.18;4.47;;;;;;;;;;5074126;28;20032;-37
2022/01/15 10:53:44;;;;;;;6.07;3.63;;;;;;;;;;5071776;28;20044;-37
2022/01/15 10:56:11;;;;;;;6.97;4.60;;;;;;;;;;5074234;28;20461;-38
2022/01/15 10:58:37;;;;;;;9.57;4.00;;;;;;;;;;5073873;28;20048;-38
2022/01/15 11:01:03;;;;;;;6.78;3.58;;;;;;;;;;5074059;28;20025;-37
2022/01/15 11:03:46;;;;;;;7.65;3.75;;;;;;;;;;5072627;28;20493;-38
2022/01/15 11:06:11;;;;;;;4.55;1.95;;;;;;;;;;5073643;28;20028;-39
2022/01/15 11:08:38;;;;;;;7.35;3.13;;;;;;;;;;5073862;28;20070;-38
2022/01/15 11:11:09;;;;;;;3.92;2.95;;;;;;;;;;5073633;28;20050;-38
2022/01/15 11:13:34;;;;;;;7.78;4.47;;;;;;;;;;5073868;28;20060;-38
2022/01/15 11:16:02;;;;;;;7.07;3.97;;;;;;;;;;5073472;28;20584;-38
2022/01/15 11:18:32;;;;;;;6.78;4.18;;;;;;;;;;5073457;28;20016;-38
2022/01/15 11:21:02;;;;;;;6.63;3.35;;;;;;;;;;5073475;28;20471;-38
2022/01/15 11:23:29;;;;;;;5.25;2.83;;;;;;;;;;5073514;28;20032;-37
2022/01/15 11:25:55;;;;;;;5.47;3.55;;;;;;;;;;5073509;28;20394;-38
2022/01/15 11:28:22;;;;;;;8.93;3.47;;;;;;;;;;5073231;28;20108;-38
2022/01/15 11:30:48;;;;;;;4.75;2.97;;;;;;;;;;5073411;28;20020;-38
2022/01/15 11:33:17;;;;;;;5.22;3.13;;;;;;;;;;5073166;28;20028;-38
2022/01/15 11:35:45;;;;;;;4.03;3.28;;;;;;;;;;5073308;28;20127;-37
2022/01/15 11:38:11;;;;;;;6.75;3.70;;;;;;;;;;5073102;28;20054;-38
2022/01/15 11:40:37;;;;;;;6.40;4.05;;;;;;;;;;5073192;28;20052;-38
2022/01/15 11:43:41;;;;;;;6.82;3.75;;;;;;;;;;5073063;28;20028;-38
2022/01/15 11:46:22;;;;;;;5.18;2.58;;;;;;;;;;5030664;28;20488;-37
2022/01/15 11:48:48;;;;;;;10.65;3.45;;;;;;;;;;5030583;28;20032;-38
2022/01/15 11:51:14;;;;;;;9.38;3.67;;;;;;;;;;5054781;28;20025;-37
2022/01/15 11:53:54;;;;;;;7.82;3.85;;;;;;;;;;5072742;28;20125;-37
2022/01/15 11:56:22;;;;;;;5.18;2.92;;;;;;;;;;5072993;28;20028;-38
2022/01/15 11:58:48;;;;;;;5.50;3.60;;;;;;;;;;5072747;28;20020;-38
2022/01/15 12:01:43;;;;;;;9.27;3.42;;;;;;;;;;5072687;28;20036;-38
2022/01/15 12:04:24;;;;;;;3.58;2.88;;;;;;;;;;5063652;28;20090;-37
2022/01/15 12:07:05;;;;;;;4.50;2.65;;;;;;;;;;5072521;28;20032;-38
2022/01/15 12:09:46;;;;;;;8.93;3.28;;;;;;;;;;5072586;28;20112;-38
2022/01/15 12:12:28;;;;;;;6.93;3.10;;;;;;;;;;5072678;28;20036;-38
2022/01/15 12:14:57;;;;;;;4.85;4.05;;;;;;;;;;5072373;28;20448;-38
2022/01/15 12:17:23;;;;;;;5.28;3.30;;;;;;;;;;5072418;28;20497;-38
2022/01/15 12:19:52;;;;;;;7.35;3.55;;;;;;;;;;5072444;28;20032;-38
2022/01/15 12:22:37;;;;;;;4.63;3.00;;;;;;;;;;5072478;28;20027;-37
2022/01/15 12:25:03;;;;;;;5.93;3.05;;;;;;;;;;5072368;28;20028;-38
2022/01/15 12:27:30;;;;;;;4.50;2.67;;;;;;;;;;5072441;28;20024;-37
2022/01/15 12:30:00;;;;;;;8.75;2.45;;;;;;;;;;5072263;28;20478;-39
2022/01/15 12:32:29;;;;;;;3.65;2.70;;;;;;;;;;5072077;28;20494;-38
2022/01/15 12:34:55;;;;;;;13.90;3.38;;;;;;;;;;5072059;28;20055;-37
2022/01/15 12:37:21;;;;;;;8.23;3.22;;;;;;;;;;5071895;28;20546;-38
2022/01/15 12:39:48;;;;;;;4.55;2.47;;;;;;;;;;5071875;28;20119;-37
2022/01/15 12:42:16;;;;;;;4.22;2.63;;;;;;;;;;5071189;28;20155;-38
2022/01/15 12:44:45;;;;;;;6.70;3.90;;;;;;;;;;5071916;28;20467;-38
2022/01/15 12:47:12;;;;;;;2.20;1.70;;;;;;;;;;5071695;28;20058;-38
2022/01/15 12:49:41;;;;;;;7.80;3.42;;;;;;;;;;5071803;28;20037;-38
2022/01/15 12:52:12;;;;;;;6.97;3.05;;;;;;;;;;5071805;28;20075;-38
2022/01/15 12:54:38;;;;;;;3.70;2.22;;;;;;;;;;5071600;28;20106;-38
2022/01/15 12:57:04;;;;;;;6.20;2.60;;;;;;;;;;5071655;28;20012;-38
2022/01/15 12:59:29;;;;;;;5.88;2.50;;;;;;;;;;5071700;28;20032;-38
2022/01/15 13:01:55;;;;;;;6.13;3.22;;;;;;;;;;5071559;28;20545;-37
2022/01/15 13:04:21;;;;;;;4.30;3.17;;;;;;;;;;5071536;28;20036;-37
2022/01/15 13:06:50;;;;;;;4.68;3.05;;;;;;;;;;5071513;28;20029;-38
2022/01/15 13:09:16;;;;;;;2.97;1.83;;;;;;;;;;5071676;28;20040;-38
2022/01/15 13:11:48;;;;;;;5.30;3.17;;;;;;;;;;5071782;28;20022;-38
2022/01/15 13:14:14;;;;;;;4.40;2.20;;;;;;;;;;5070123;28;20045;-38
2022/01/15 13:16:43;;;;;;;3.95;2.72;;;;;;;;;;5070216;28;20028;-38
2022/01/15 13:19:08;;;;;;;7.57;2.72;;;;;;;;;;5071387;28;20612;-38
2022/01/15 13:21:36;;;;;;;5.85;2.78;;;;;;;;;;5071357;28;20482;-37
2022/01/15 13:24:07;;;;;;;5.78;2.85;;;;;;;;;;5071261;28;20405;-38
2022/01/15 13:26:35;;;;;;;4.18;2.47;;;;;;;;;;5071387;28;20040;-38
2022/01/15 13:29:02;;;;;;;6.80;3.88;;;;;;;;;;5071317;28;20021;-38
2022/01/15 13:31:32;;;;;;;8.63;3.58;;;;;;;;;;5071364;28;20468;-38
2022/01/15 13:34:11;;;;;;;6.03;2.72;;;;;;;;;;5071142;28;20040;-37
2022/01/15 13:36:37;;;;;;;3.22;2.58;;;;;;;;;;5071434;28;20033;-38
2022/01/15 13:39:03;;;;;;;4.32;2.63;;;;;;;;;;5086668;28;20085;-37
2022/01/15 13:41:33;;;;;;;5.82;3.28;;;;;;;;;;5071039;28;20056;-38
2022/01/15 13:44:04;;;;;;;7.57;3.60;;;;;;;;;;5071114;28;20035;-38
2022/01/15 13:46:37;;;;;;;7.95;3.45;;;;;;;;;;5071033;28;20533;-38
2022/01/15 13:49:10;;;;;;;10.50;3.50;;;;;;;;;;5071357;28;20032;-38
2022/01/15 13:54:33;;;;;;;5.60;3.47;;;;;;;;;;5075009;28;20041;-38
2022/01/15 13:57:07;;;;;;;3.83;2.47;;;;;;;;;;5075076;28;20024;-38
2022/01/15 13:59:33;;;;;;;6.10;3.10;;;;;;;;;;5075046;28;20054;-39
2022/01/15 14:02:00;;;;;;;7.63;2.97;;;;;;;;;;5074911;28;20024;-37
2022/01/15 14:04:33;;;;;;;5.50;2.97;;;;;;;;;;5075003;28;20036;-38
2022/01/15 14:06:59;;;;;;;;;;;;;;;;;;5075232;28;20039;-38
2022/01/15 14:09:25;;;;;;;5.30;3.30;;;;;;;;;;5075006;28;19908;-38
2022/01/15 14:12:10;;;;;;;5.53;3.05;;;;;;;;;;5075101;28;20440;-38
2022/01/15 14:14:47;;;;;;;5.80;3.15;;;;;;;;;;5074770;28;20487;-38
2022/01/15 14:17:17;;;;;;;9.23;3.13;;;;;;;;;;5074590;28;20040;-38
2022/01/15 14:22:25;;;;;;;7.72;3.17;;;;;;;;;;5074933;28;20032;-38
2022/01/15 14:24:51;;;;;;;3.53;2.88;;;;;;;;;;5074679;28;20020;-38
2022/01/15 14:27:22;;;;;;;4.13;2.55;;;;;;;;;;5074339;28;20041;-38
2022/01/15 14:29:49;;;;;;;4.90;2.97;;;;;;;;;;5074593;28;20039;-38
2022/01/15 14:32:14;;;;;;;4.18;2.92;;;;;;;;;;5074375;28;20526;-38
2022/01/15 14:34:40;;;;;;;4.72;2.67;;;;;;;;;;5074300;28;20178;-38
2022/01/15 14:37:07;;;;;;;3.72;1.63;;;;;;;;;;5074362;28;20075;-38
2022/01/15 14:39:33;;;;;;;8.43;3.63;;;;;;;;;;5074219;28;20067;-38
2022/01/15 14:41:59;;;;;;;3.50;2.15;;;;;;;;;;5074021;28;20048;-38
2022/01/15 14:44:25;;;;;;;3.33;2.05;;;;;;;;;;5074309;28;20523;-42
2022/01/15 14:46:50;;;;;;;5.30;3.00;;;;;;;;;;5074459;28;20043;-38
2022/01/15 14:49:16;;;;;;;8.43;2.65;;;;;;;;;;5074410;28;20471;-38
2022/01/15 14:51:42;;;;;;;5.93;3.33;;;;;;;;;;5074306;28;20079;-38
2022/01/15 14:54:08;;;;;;;6.00;2.58;;;;;;;;;;5073912;28;20766;-37
2022/01/15 14:56:34;;;;;;;5.53;3.65;;;;;;;;;;5074192;28;20020;-38
2022/01/15 14:58:59;;;;;;;7.97;4.05;;;;;;;;;;5073890;28;20486;-38
2022/01/15 15:01:26;;;;;;;7.95;3.03;;;;;;;;;;5074037;28;20071;-38
2022/01/15 15:03:52;;;;;;;3.88;2.53;;;;;;;;;;5073728;28;20020;-38
2022/01/15 15:06:18;;;;;;;9.00;3.72;;;;;;;;;;5073210;28;20047;-38
2022/01/15 15:08:44;;;;;;;5.57;2.45;;;;;;;;;;5074006;28;20047;-38
2022/01/15 15:11:14;;;;;;;8.68;3.35;;;;;;;;;;5073703;28;20056;-38
2022/01/15 15:13:40;;;;;;;7.90;3.28;;;;;;;;;;5073756;28;20034;-37
2022/01/15 15:16:08;;;;;;;4.82;3.30;;;;;;;;;;5072243;28;20119;-38